Time;durP1;ratioP1;P1;durP2;ratioP2;P2;SDS_P1;SDS_P2;PMS_P1;PMS_P2;Temp;Humidity;BMP_temperature;BMP_pressure;BME280_temperature;BME280_humidity;BME280_pressure;Samples;Min_cycle;Max_cycle;Signal;HPM_P1;HPM_P2
2023/06/08 00:02:18;;;;;;;5.72;2.60;;;17.70;82.30;;;;;;5032664;28;20029;-75
2023/06/08 00:04:45;;;;;;;3.00;2.42;;;17.70;82.50;;;;;;5033002;28;20033;-74
2023/06/08 00:07:14;;;;;;;4.45;2.50;;;17.70;82.70;;;;;;5026635;28;20014;-74
2023/06/08 00:09:40;;;;;;;6.93;2.63;;;17.60;82.70;;;;;;5031785;28;20388;-73
2023/06/08 00:12:06;;;;;;;3.47;2.67;;;17.70;82.90;;;;;;5026377;28;20293;-75
2023/06/08 00:14:34;;;;;;;4.55;2.78;;;17.60;83.00;;;;;;5017610;28;20014;-73
2023/06/08 00:17:02;;;;;;;5.88;3.08;;;17.60;83.10;;;;;;5024107;28;20065;-74
2023/06/08 00:19:33;;;;;;;3.33;2.65;;;17.60;83.30;;;;;;5020443;28;20087;-74
2023/06/08 00:22:04;;;;;;;5.20;2.90;;;17.50;83.30;;;;;;5021077;28;20377;-73
2023/06/08 00:24:36;;;;;;;3.97;2.40;;;17.60;83.50;;;;;;5032806;28;20096;-74
2023/06/08 00:27:02;;;;;;;4.65;2.83;;;17.50;83.60;;;;;;5028920;28;20021;-74
2023/06/08 00:29:28;;;;;;;4.53;2.70;;;17.50;83.60;;;;;;5031673;28;20105;-74
2023/06/08 00:31:54;;;;;;;3.15;2.55;;;17.50;83.70;;;;;;5032125;28;20045;-73
2023/06/08 00:34:20;;;;;;;3.53;2.47;;;17.50;83.80;;;;;;5035597;28;20089;-73
2023/06/08 00:36:46;;;;;;;3.72;3.00;;;17.50;83.80;;;;;;5029326;28;20480;-73
2023/06/08 00:39:12;;;;;;;2.83;2.42;;;17.40;83.70;;;;;;5028427;28;20053;-73
2023/06/08 00:41:38;;;;;;;4.22;2.95;;;17.50;83.90;;;;;;5027842;28;20085;-73
2023/06/08 00:44:08;;;;;;;3.67;2.40;;;17.40;83.90;;;;;;5018132;28;20029;-73
2023/06/08 00:46:38;;;;;;;4.40;2.92;;;17.50;84.00;;;;;;5024815;28;20032;-74
2023/06/08 00:49:07;;;;;;;4.55;3.10;;;17.40;84.00;;;;;;5035173;28;20057;-73
2023/06/08 00:51:40;;;;;;;5.90;2.75;;;17.40;84.10;;;;;;5026260;28;20022;-73
2023/06/08 00:54:08;;;;;;;3.65;2.63;;;17.40;84.20;;;;;;5017372;28;20034;-73
2023/06/08 00:56:36;;;;;;;4.95;3.00;;;17.40;84.30;;;;;;5019237;28;20128;-73
2023/06/08 00:59:02;;;;;;;3.28;2.40;;;17.40;84.30;;;;;;5032111;28;20063;-72
2023/06/08 01:01:29;;;;;;;7.15;2.83;;;17.40;84.40;;;;;;5030158;28;20049;-74
2023/06/08 01:04:08;;;;;;;3.38;2.55;;;17.40;84.30;;;;;;5028473;28;20036;-73
2023/06/08 01:06:36;;;;;;;3.63;2.65;;;17.40;84.50;;;;;;5015047;28;20448;-74
2023/06/08 01:09:06;;;;;;;7.22;2.63;;;17.30;84.30;;;;;;5014587;28;20024;-74
2023/06/08 01:12:10;;;;;;;3.92;2.85;;;17.30;84.20;;;;;;5014624;28;20030;-74
2023/06/08 01:15:13;;;;;;;3.63;2.73;;;17.30;84.20;;;;;;5014935;28;20021;-73
2023/06/08 01:17:41;;;;;;;6.32;3.13;;;17.30;84.30;;;;;;5013298;28;20626;-74
2023/06/08 01:20:36;;;;;;;4.40;2.67;;;17.30;84.30;;;;;;5014871;28;20030;-73
2023/06/08 01:23:08;;;;;;;3.33;2.72;;;17.30;84.30;;;;;;5014870;28;20022;-74
2023/06/08 01:25:35;;;;;;;4.85;2.70;;;17.20;84.30;;;;;;5014497;28;20030;-74
2023/06/08 01:28:12;;;;;;;4.68;2.83;;;17.20;84.30;;;;;;5014972;28;20105;-74
2023/06/08 01:30:46;;;;;;;5.50;3.05;;;17.20;84.40;;;;;;5014864;28;20037;-73
2023/06/08 01:33:16;;;;;;;5.18;2.70;;;17.20;84.40;;;;;;5038075;28;20021;-73
2023/06/08 01:35:46;;;;;;;3.53;2.53;;;17.20;84.60;;;;;;5029115;28;20017;-74
2023/06/08 01:38:24;;;;;;;6.95;2.90;;;17.10;84.70;;;;;;5033224;28;20116;-74
2023/06/08 01:40:55;;;;;;;4.70;3.17;;;17.00;85.10;;;;;;5034923;28;20033;-74
2023/06/08 01:43:23;;;;;;;4.00;2.47;;;17.00;85.30;;;;;;5034236;28;20025;-74
2023/06/08 01:45:53;;;;;;;6.63;2.97;;;16.90;85.60;;;;;;5033656;28;20051;-74
2023/06/08 01:48:22;;;;;;;4.03;2.88;;;16.90;86.00;;;;;;5023488;28;20021;-74
2023/06/08 01:50:49;;;;;;;4.93;3.05;;;16.90;86.30;;;;;;5014449;28;20076;-74
2023/06/08 01:53:16;;;;;;;5.65;3.08;;;16.80;86.60;;;;;;5020208;28;20472;-74
2023/06/08 01:55:42;;;;;;;4.70;2.70;;;16.80;86.90;;;;;;5024280;28;20026;-75
2023/06/08 01:58:07;;;;;;;3.97;3.03;;;16.70;87.00;;;;;;5031644;28;20522;-74
2023/06/08 02:00:33;;;;;;;5.80;2.90;;;16.70;86.90;;;;;;5032479;28;20049;-74
2023/06/08 02:02:59;;;;;;;6.22;2.90;;;16.70;87.00;;;;;;5033546;28;20408;-74
2023/06/08 02:05:25;;;;;;;4.55;2.70;;;16.60;86.80;;;;;;5033280;28;20022;-74
2023/06/08 02:07:50;;;;;;;4.10;2.80;;;16.60;86.90;;;;;;5032665;28;20543;-74
2023/06/08 02:10:19;;;;;;;4.55;2.60;;;16.50;87.10;;;;;;5032824;28;20111;-73
2023/06/08 02:12:44;;;;;;;4.68;2.70;;;16.50;87.20;;;;;;5033348;28;20025;-74
2023/06/08 02:15:10;;;;;;;3.95;3.08;;;16.50;87.40;;;;;;5030940;28;20538;-72
2023/06/08 02:17:36;;;;;;;4.18;3.38;;;16.40;87.40;;;;;;5028967;28;20152;-73
2023/06/08 02:20:07;;;;;;;5.20;3.15;;;16.40;87.40;;;;;;5032937;28;20045;-73
2023/06/08 02:22:35;;;;;;;5.40;3.03;;;16.40;87.50;;;;;;5032443;28;20017;-74
2023/06/08 02:25:01;;;;;;;4.30;2.70;;;16.40;87.30;;;;;;5015504;28;20455;-74
2023/06/08 02:27:27;;;;;;;4.55;3.03;;;16.40;87.30;;;;;;5016827;28;20358;-74
2023/06/08 02:29:54;;;;;;;8.40;3.58;;;16.40;87.40;;;;;;5032341;28;20075;-74
2023/06/08 02:32:20;;;;;;;5.13;3.45;;;16.30;87.40;;;;;;5021046;28;20484;-74
2023/06/08 02:34:53;;;;;;;4.43;2.75;;;16.20;87.50;;;;;;5013082;28;20026;-74
2023/06/08 02:37:19;;;;;;;5.00;3.35;;;16.30;87.80;;;;;;5013141;28;20050;-74
2023/06/08 02:39:45;;;;;;;6.32;2.85;;;16.20;87.60;;;;;;5013031;28;20088;-74
2023/06/08 02:42:11;;;;;;;3.95;2.60;;;16.20;87.70;;;;;;5012880;28;20168;-74
2023/06/08 02:44:37;;;;;;;4.88;3.08;;;16.20;87.60;;;;;;5012675;28;20148;-73
2023/06/08 02:47:03;;;;;;;6.82;3.38;;;16.20;87.80;;;;;;5012181;28;20684;-74
2023/06/08 02:49:28;;;;;;;5.32;2.75;;;16.10;87.80;;;;;;5013071;28;20022;-74
2023/06/08 02:51:54;;;;;;;7.18;3.28;;;16.10;88.00;;;;;;5012335;28;20045;-74
2023/06/08 02:54:20;;;;;;;3.65;2.80;;;16.10;88.10;;;;;;5012523;28;20115;-74
2023/06/08 02:56:46;;;;;;;3.85;3.15;;;16.00;88.40;;;;;;5012368;28;20034;-74
2023/06/08 02:59:12;;;;;;;4.68;3.17;;;16.00;88.60;;;;;;5012516;28;20060;-74
2023/06/08 03:01:53;;;;;;;4.40;3.10;;;16.00;88.70;;;;;;5027666;28;20488;-74
2023/06/08 03:04:20;;;;;;;5.57;3.30;;;15.90;88.60;;;;;;5032220;28;20123;-74
2023/06/08 03:06:46;;;;;;;4.82;3.08;;;15.90;88.60;;;;;;5017451;28;20449;-74
2023/06/08 03:09:12;;;;;;;5.88;3.42;;;15.90;88.70;;;;;;5029704;28;20025;-73
2023/06/08 03:11:38;;;;;;;3.40;2.90;;;15.90;88.80;;;;;;5031802;28;20029;-73
2023/06/08 03:14:04;;;;;;;4.95;3.38;;;15.80;88.70;;;;;;5031852;28;20033;-74
2023/06/08 03:16:31;;;;;;;3.78;2.78;;;15.80;88.80;;;;;;5031478;28;20092;-72
2023/06/08 03:18:57;;;;;;;3.40;2.55;;;15.80;88.90;;;;;;5031427;28;20132;-74
2023/06/08 03:21:28;;;;;;;4.45;2.72;;;15.70;89.00;;;;;;5031433;28;20451;-74
2023/06/08 03:23:55;;;;;;;4.63;3.35;;;15.70;89.10;;;;;;5023141;28;20041;-74
2023/06/08 03:26:21;;;;;;;4.07;3.15;;;15.70;89.80;;;;;;5023606;28;20396;-73
2023/06/08 03:28:47;;;;;;;8.07;3.70;;;15.70;89.40;;;;;;5025479;28;20021;-74
2023/06/08 03:31:13;;;;;;;7.10;3.85;;;15.60;90.00;;;;;;5029928;28;20025;-73
2023/06/08 03:33:39;;;;;;;3.85;3.05;;;15.70;90.10;;;;;;5029101;28;20017;-73
2023/06/08 03:36:06;;;;;;;6.95;3.20;;;15.60;89.70;;;;;;5030826;28;20014;-74
2023/06/08 03:38:31;;;;;;;3.97;2.95;;;15.60;90.00;;;;;;5033680;28;20480;-74
2023/06/08 03:40:57;;;;;;;6.43;3.72;;;15.60;90.00;;;;;;5044331;28;20099;-74
2023/06/08 03:43:23;;;;;;;5.90;3.72;;;15.60;90.00;;;;;;5025617;28;20030;-72
2023/06/08 03:45:49;;;;;;;7.85;3.17;;;15.60;89.90;;;;;;5024344;28;20030;-74
2023/06/08 03:48:15;;;;;;;4.38;3.03;;;15.60;89.80;;;;;;5031662;28;20020;-74
2023/06/08 03:50:43;;;;;;;5.43;3.85;;;15.60;89.80;;;;;;5031426;28;20099;-74
2023/06/08 03:53:10;;;;;;;4.13;3.38;;;15.60;89.90;;;;;;5028301;28;20021;-74
2023/06/08 03:55:36;;;;;;;5.63;3.30;;;15.60;90.00;;;;;;5029827;28;20133;-73
2023/06/08 03:58:02;;;;;;;4.90;3.35;;;15.50;90.00;;;;;;5031342;28;20065;-74
2023/06/08 04:00:29;;;;;;;4.07;3.28;;;15.50;90.00;;;;;;5031394;28;20460;-74
2023/06/08 04:02:58;;;;;;;4.60;3.58;;;15.50;90.00;;;;;;5031229;28;20017;-74
2023/06/08 04:05:24;;;;;;;6.53;3.83;;;15.50;90.10;;;;;;5030974;28;20025;-73
2023/06/08 04:07:51;;;;;;;6.45;4.00;;;15.50;90.10;;;;;;5030910;28;20083;-74
2023/06/08 04:10:17;;;;;;;5.35;3.35;;;15.50;90.10;;;;;;5035163;28;20053;-74
2023/06/08 04:12:43;;;;;;;6.72;4.15;;;15.50;90.40;;;;;;5035417;28;20029;-74
2023/06/08 04:15:10;;;;;;;5.80;4.07;;;15.60;90.90;;;;;;5035254;28;20029;-73
2023/06/08 04:17:42;;;;;;;5.22;3.50;;;15.70;91.00;;;;;;5034116;28;20057;-74
2023/06/08 04:20:10;;;;;;;5.25;4.00;;;15.70;91.40;;;;;;5034964;28;20026;-74
2023/06/08 04:22:35;;;;;;;8.55;4.05;;;15.70;91.20;;;;;;5034593;28;20026;-74
2023/06/08 04:25:01;;;;;;;6.95;3.58;;;15.70;91.30;;;;;;5034929;28;20051;-74
2023/06/08 04:27:27;;;;;;;4.88;3.80;;;15.60;91.30;;;;;;5034914;28;20033;-73
2023/06/08 04:29:53;;;;;;;5.57;3.63;;;15.70;91.50;;;;;;5035214;28;20385;-74
2023/06/08 04:32:19;;;;;;;6.82;4.38;;;15.70;91.80;;;;;;5034675;28;20018;-74
2023/06/08 04:34:45;;;;;;;6.60;4.10;;;15.80;91.50;;;;;;5032930;28;20038;-74
2023/06/08 04:37:11;;;;;;;6.88;4.38;;;15.80;91.30;;;;;;5035033;28;20052;-74
2023/06/08 04:39:38;;;;;;;5.30;3.67;;;15.90;91.00;;;;;;5030343;28;20103;-73
2023/06/08 04:42:05;;;;;;;5.72;4.22;;;16.00;90.60;;;;;;5033589;28;20465;-75
2023/06/08 04:44:34;;;;;;;6.00;4.05;;;16.00;90.40;;;;;;5031949;28;20064;-74
2023/06/08 04:47:01;;;;;;;7.30;4.93;;;16.10;90.10;;;;;;5018681;28;20021;-74
2023/06/08 04:49:30;;;;;;;7.00;4.85;;;16.20;89.90;;;;;;5033486;28;20032;-74
2023/06/08 04:52:00;;;;;;;5.22;4.10;;;16.30;89.50;;;;;;5049268;28;20025;-74
2023/06/08 04:54:29;;;;;;;6.50;3.97;;;16.40;89.20;;;;;;5044715;28;20042;-74
2023/06/08 04:56:59;;;;;;;4.57;3.65;;;16.50;88.80;;;;;;5030261;28;20507;-74
2023/06/08 04:59:28;;;;;;;4.93;3.60;;;16.60;88.40;;;;;;5034533;28;20104;-74
2023/06/08 05:01:54;;;;;;;5.40;4.28;;;16.70;88.10;;;;;;5033029;28;20468;-73
2023/06/08 05:04:21;;;;;;;6.10;3.38;;;16.80;87.70;;;;;;5026114;28;20089;-72
2023/06/08 05:06:47;;;;;;;3.97;3.10;;;16.90;87.30;;;;;;5027595;28;20032;-72
2023/06/08 05:09:12;;;;;;;7.00;3.75;;;17.00;86.60;;;;;;5048869;28;20063;-72
2023/06/08 05:11:39;;;;;;;4.97;3.95;;;17.10;86.30;;;;;;5026242;28;20025;-74
2023/06/08 05:14:05;;;;;;;3.45;3.00;;;17.10;86.00;;;;;;5024278;28;20385;-72
2023/06/08 05:16:30;;;;;;;4.03;3.22;;;17.30;86.00;;;;;;5031783;28;20025;-73
2023/06/08 05:18:56;;;;;;;3.60;2.78;;;17.40;85.80;;;;;;5028937;28;20539;-73
2023/06/08 05:21:22;;;;;;;3.90;3.08;;;17.50;85.40;;;;;;5027165;28;20054;-72
2023/06/08 05:23:47;;;;;;;5.07;3.40;;;17.60;85.00;;;;;;5033729;28;20476;-74
2023/06/08 05:26:13;;;;;;;5.10;2.90;;;17.70;84.40;;;;;;5030010;28;20037;-71
2023/06/08 05:28:39;;;;;;;4.75;3.15;;;17.70;84.20;;;;;;5030688;28;20105;-72
2023/06/08 05:31:05;;;;;;;6.43;2.92;;;17.80;83.90;;;;;;5029143;28;20018;-72
2023/06/08 05:33:30;;;;;;;4.72;3.58;;;17.80;83.90;;;;;;5028470;28;20017;-72
2023/06/08 05:35:56;;;;;;;4.18;3.13;;;17.80;83.30;;;;;;5029832;28;20025;-71
2023/06/08 05:38:22;;;;;;;4.53;3.63;;;17.80;83.70;;;;;;5025643;28;20033;-71
2023/06/08 05:40:48;;;;;;;4.28;3.10;;;17.80;83.40;;;;;;5038994;28;20112;-71
2023/06/08 05:43:13;;;;;;;4.60;2.90;;;17.90;83.60;;;;;;5029455;28;20481;-71
2023/06/08 05:45:39;;;;;;;5.30;3.45;;;18.00;83.30;;;;;;5031518;28;20076;-70
2023/06/08 05:48:05;;;;;;;5.88;3.35;;;18.10;83.30;;;;;;5030048;28;20488;-69
2023/06/08 05:50:31;;;;;;;3.30;2.90;;;18.20;83.00;;;;;;5032615;28;20036;-69
2023/06/08 05:52:56;;;;;;;5.40;3.58;;;18.40;83.10;;;;;;5028492;28;20376;-69
2023/06/08 05:55:22;;;;;;;6.07;3.13;;;18.50;82.90;;;;;;5029859;28;20021;-73
2023/06/08 05:57:48;;;;;;;5.10;3.20;;;18.60;82.30;;;;;;5020125;28;20039;-74
2023/06/08 06:00:14;;;;;;;6.65;3.47;;;18.80;82.10;;;;;;5029195;28;20026;-74
2023/06/08 06:02:41;;;;;;;3.72;2.88;;;19.00;81.50;;;;;;5026559;28;20449;-75
2023/06/08 06:05:11;;;;;;;6.18;2.92;;;19.20;80.90;;;;;;5024588;28;20030;-74
2023/06/08 06:07:37;;;;;;;3.92;3.13;;;19.30;80.70;;;;;;5033022;28;20020;-74
2023/06/08 06:10:07;;;;;;;4.22;3.17;;;19.40;80.20;;;;;;5032301;28;20029;-74
2023/06/08 06:12:32;;;;;;;4.47;3.10;;;19.60;80.10;;;;;;5030469;28;20022;-75
2023/06/08 06:14:58;;;;;;;4.35;3.10;;;19.70;79.60;;;;;;5032737;28;20026;-74
2023/06/08 06:17:24;;;;;;;4.90;3.72;;;19.90;79.10;;;;;;5029203;28;20025;-74
2023/06/08 06:19:49;;;;;;;5.20;3.35;;;20.00;78.70;;;;;;5021181;28;20025;-73
2023/06/08 06:22:16;;;;;;;4.18;3.45;;;20.10;78.50;;;;;;5022334;28;20033;-75
2023/06/08 06:24:42;;;;;;;4.80;3.47;;;20.20;78.20;;;;;;5029592;28;20029;-74
2023/06/08 06:27:07;;;;;;;6.80;3.15;;;20.20;78.20;;;;;;5031527;28;20541;-74
2023/06/08 06:29:34;;;;;;;4.68;3.22;;;20.30;78.10;;;;;;5032472;28;20018;-75
2023/06/08 06:31:59;;;;;;;3.83;3.03;;;20.30;78.10;;;;;;5031898;28;20017;-74
2023/06/08 06:34:25;;;;;;;6.10;3.08;;;20.40;77.50;;;;;;5023446;28;20018;-74
2023/06/08 06:36:51;;;;;;;4.72;2.75;;;20.50;77.60;;;;;;5030481;28;20029;-74
2023/06/08 06:39:18;;;;;;;4.40;3.10;;;20.60;77.30;;;;;;5031262;28;20452;-74
2023/06/08 06:41:44;;;;;;;4.97;3.20;;;20.60;76.70;;;;;;5024130;28;20021;-73
2023/06/08 06:44:10;;;;;;;3.65;3.10;;;20.60;76.70;;;;;;5029069;28;20040;-73
2023/06/08 06:46:36;;;;;;;4.60;2.88;;;20.70;76.50;;;;;;5029464;28;20060;-74
2023/06/08 06:49:01;;;;;;;4.50;3.17;;;20.70;76.40;;;;;;5026481;28;20025;-74
2023/06/08 06:51:27;;;;;;;4.88;3.38;;;20.80;76.40;;;;;;5022539;28;20033;-73
2023/06/08 06:53:52;;;;;;;4.80;3.35;;;20.80;76.20;;;;;;5025544;28;20025;-73
2023/06/08 06:56:18;;;;;;;4.15;3.17;;;20.90;75.80;;;;;;5029592;28;20025;-74
2023/06/08 06:58:44;;;;;;;5.03;3.88;;;20.90;75.70;;;;;;5028519;28;20034;-74
2023/06/08 07:01:15;;;;;;;4.68;3.55;;;20.90;75.60;;;;;;5026296;28;20017;-74
2023/06/08 07:03:42;;;;;;;6.00;3.38;;;20.90;75.70;;;;;;5030437;28;20435;-69
2023/06/08 07:06:11;;;;;;;4.32;3.60;;;20.80;75.80;;;;;;5031892;28;20048;-69
2023/06/08 07:08:38;;;;;;;7.78;3.67;;;20.80;76.60;;;;;;5030712;28;20512;-69
2023/06/08 07:11:03;;;;;;;8.15;3.35;;;20.70;76.70;;;;;;5027742;28;20017;-73
2023/06/08 07:13:29;;;;;;;4.95;3.53;;;20.70;76.90;;;;;;5029123;28;20025;-73
2023/06/08 07:15:55;;;;;;;5.00;3.85;;;20.70;76.50;;;;;;5026168;28;20032;-75
2023/06/08 07:18:20;;;;;;;5.88;3.70;;;20.60;76.50;;;;;;5028889;28;20080;-74
2023/06/08 07:20:46;;;;;;;4.70;3.78;;;20.60;76.80;;;;;;5029010;28;20539;-74
2023/06/08 07:23:12;;;;;;;6.38;4.50;;;20.60;77.30;;;;;;5026487;28;20026;-74
2023/06/08 07:25:38;;;;;;;4.22;3.80;;;20.50;77.80;;;;;;5029322;28;20033;-74
2023/06/08 07:28:05;;;;;;;6.18;4.20;;;20.50;78.20;;;;;;5029838;28;20013;-74
2023/06/08 07:30:31;;;;;;;6.68;4.18;;;20.50;78.90;;;;;;5020098;28;20014;-75
2023/06/08 07:32:58;;;;;;;4.72;4.10;;;20.60;78.80;;;;;;5020603;28;20420;-75
2023/06/08 07:35:24;;;;;;;5.75;4.45;;;20.70;78.80;;;;;;5024989;28;20041;-75
2023/06/08 07:37:49;;;;;;;5.80;4.05;;;20.80;78.90;;;;;;5030612;28;20029;-75
2023/06/08 07:40:17;;;;;;;4.93;4.00;;;20.90;78.60;;;;;;5025246;28;20156;-75
2023/06/08 07:42:43;;;;;;;6.00;3.53;;;20.90;78.20;;;;;;5029740;28;20433;-77
2023/06/08 07:45:11;;;;;;;6.45;3.67;;;20.90;78.20;;;;;;5029584;28;20477;-75
2023/06/08 07:47:37;;;;;;;8.10;3.58;;;20.90;78.20;;;;;;5024996;28;20018;-75
2023/06/08 07:50:02;;;;;;;5.32;4.20;;;20.90;78.40;;;;;;5028012;28;20390;-75
2023/06/08 07:52:28;;;;;;;4.22;3.30;;;20.90;78.50;;;;;;5025982;28;20033;-74
2023/06/08 07:54:54;;;;;;;5.53;3.35;;;21.00;78.70;;;;;;5022501;28;20041;-74
2023/06/08 07:57:19;;;;;;;9.52;3.60;;;21.00;78.50;;;;;;5024881;28;20118;-74
2023/06/08 07:59:45;;;;;;;5.18;3.60;;;21.10;79.30;;;;;;5021284;28;20026;-74
2023/06/08 08:02:11;;;;;;;3.90;3.13;;;21.10;79.30;;;;;;5024907;28;20488;-74
2023/06/08 08:04:36;;;;;;;5.75;3.55;;;21.20;78.60;;;;;;5023842;28;20037;-75
2023/06/08 08:07:02;;;;;;;3.85;3.10;;;21.30;78.40;;;;;;5025615;28;20520;-74
2023/06/08 08:09:28;;;;;;;3.80;3.25;;;21.40;78.20;;;;;;5026645;28;20507;-74
2023/06/08 08:11:53;;;;;;;6.13;3.85;;;21.50;78.00;;;;;;5029392;28;20388;-74
2023/06/08 08:14:19;;;;;;;5.70;3.75;;;21.70;77.70;;;;;;5024490;28;20070;-75
2023/06/08 08:16:45;;;;;;;5.10;3.15;;;21.80;77.00;;;;;;5023970;28;20026;-75
2023/06/08 08:19:10;;;;;;;4.97;3.22;;;21.90;77.10;;;;;;5021442;28;20388;-76
2023/06/08 08:21:36;;;;;;;4.80;3.17;;;22.10;75.90;;;;;;5026155;28;20112;-74
2023/06/08 08:24:02;;;;;;;4.32;3.05;;;22.10;75.30;;;;;;5023010;28;20036;-75
2023/06/08 08:26:28;;;;;;;5.50;3.80;;;22.10;74.50;;;;;;5027915;28;20075;-77
2023/06/08 08:28:55;;;;;;;4.97;3.35;;;22.20;74.40;;;;;;5029898;28;20101;-74
2023/06/08 08:31:21;;;;;;;5.10;3.17;;;22.20;74.60;;;;;;5031134;28;20021;-75
2023/06/08 08:33:47;;;;;;;3.83;3.08;;;22.30;75.40;;;;;;5021888;28;20037;-73
2023/06/08 08:36:12;;;;;;;6.38;3.58;;;22.30;75.70;;;;;;5022122;28;20043;-74
2023/06/08 08:38:41;;;;;;;5.35;3.25;;;22.30;75.40;;;;;;5025376;28;20083;-74
2023/06/08 08:41:09;;;;;;;6.07;3.33;;;22.50;75.50;;;;;;5019037;28;20030;-74
2023/06/08 08:43:42;;;;;;;5.47;3.40;;;22.60;74.90;;;;;;5021611;28;20025;-74
2023/06/08 08:46:09;;;;;;;4.68;3.35;;;22.70;74.90;;;;;;5026393;28;20037;-72
2023/06/08 08:48:42;;;;;;;7.00;3.15;;;22.80;74.60;;;;;;5030448;28;20032;-71
2023/06/08 08:51:18;;;;;;;4.40;3.20;;;22.90;73.90;;;;;;5017276;28;20025;-73
2023/06/08 08:53:48;;;;;;;5.00;3.10;;;22.90;73.40;;;;;;5029736;28;20388;-70
2023/06/08 08:56:26;;;;;;;3.88;3.15;;;23.10;74.00;;;;;;5031642;28;20025;-71
2023/06/08 08:58:52;;;;;;;5.45;2.92;;;23.10;74.30;;;;;;5032898;28;20392;-71
2023/06/08 09:01:19;;;;;;;5.45;3.50;;;23.20;74.00;;;;;;5032355;28;20116;-70
2023/06/08 09:03:45;;;;;;;6.25;2.97;;;23.20;74.20;;;;;;5033821;28;20087;-70
2023/06/08 09:06:11;;;;;;;4.18;3.53;;;23.30;73.50;;;;;;5033827;28;20095;-71
2023/06/08 09:08:37;;;;;;;5.65;3.20;;;23.40;72.80;;;;;;5034430;28;20100;-70
2023/06/08 09:11:09;;;;;;;4.72;3.00;;;23.40;72.50;;;;;;5034352;28;20100;-71
2023/06/08 09:13:35;;;;;;;6.20;3.17;;;23.50;70.50;;;;;;5033450;28;20017;-70
2023/06/08 09:16:19;;;;;;;5.15;3.42;;;23.50;71.00;;;;;;5034212;28;20120;-71
2023/06/08 09:18:46;;;;;;;4.85;3.45;;;23.50;71.40;;;;;;5033964;28;20143;-70
2023/06/08 09:21:28;;;;;;;5.90;3.30;;;23.50;71.10;;;;;;5033426;28;20034;-70
2023/06/08 09:24:05;;;;;;;6.32;3.10;;;23.60;70.60;;;;;;5014035;28;20365;-70
2023/06/08 09:26:32;;;;;;;3.63;2.70;;;23.60;69.70;;;;;;5020191;28;20427;-69
2023/06/08 09:29:00;;;;;;;4.75;3.28;;;23.60;69.40;;;;;;5019132;28;20033;-69
2023/06/08 09:31:29;;;;;;;4.72;2.58;;;23.70;70.10;;;;;;5033830;28;20523;-70
2023/06/08 09:34:08;;;;;;;3.53;2.95;;;23.80;69.10;;;;;;5031953;28;20040;-73
2023/06/08 09:36:37;;;;;;;3.72;3.05;;;24.00;69.90;;;;;;5033886;28;20029;-71
2023/06/08 09:39:03;;;;;;;7.25;3.53;;;24.10;69.60;;;;;;5029012;28;20538;-72
2023/06/08 09:41:30;;;;;;;4.53;3.22;;;24.20;68.00;;;;;;5033634;28;20423;-72
2023/06/08 09:43:55;;;;;;;5.32;3.53;;;24.30;66.90;;;;;;5033900;28;20045;-72
2023/06/08 09:46:38;;;;;;;3.47;3.13;;;24.30;66.20;;;;;;5033750;28;20033;-73
2023/06/08 09:49:08;;;;;;;6.30;3.40;;;24.30;65.80;;;;;;5032350;28;20025;-71
2023/06/08 09:51:37;;;;;;;4.72;3.20;;;24.30;67.40;;;;;;5033728;28;20427;-71
2023/06/08 09:54:04;;;;;;;4.75;3.38;;;24.30;67.00;;;;;;5016902;28;20029;-72
2023/06/08 09:56:30;;;;;;;4.03;3.25;;;24.30;66.90;;;;;;5024837;28;20113;-70
2023/06/08 09:58:58;;;;;;;4.97;3.53;;;24.30;68.00;;;;;;5024954;28;20057;-70
2023/06/08 10:01:42;;;;;;;5.70;3.20;;;24.30;67.30;;;;;;5031607;28;20033;-71
2023/06/08 10:04:31;;;;;;;6.88;3.30;;;24.30;67.00;;;;;;5033344;28;20388;-72
2023/06/08 10:07:02;;;;;;;3.88;3.40;;;24.30;64.90;;;;;;5032855;28;20025;-73
2023/06/08 10:09:30;;;;;;;6.05;3.70;;;24.40;63.70;;;;;;5033187;28;20389;-73
2023/06/08 10:11:56;;;;;;;6.68;3.97;;;24.50;63.90;;;;;;5032268;28;20101;-71
2023/06/08 10:14:26;;;;;;;4.97;3.42;;;24.50;62.90;;;;;;5033293;28;20032;-72
2023/06/08 10:16:57;;;;;;;6.45;4.13;;;24.40;63.10;;;;;;5033132;28;20033;-72
2023/06/08 10:19:24;;;;;;;8.65;3.90;;;24.40;62.80;;;;;;5031250;28;20029;-72
2023/06/08 10:21:52;;;;;;;7.72;4.22;;;24.30;62.60;;;;;;5028916;28;20112;-73
2023/06/08 10:24:20;;;;;;;4.80;3.95;;;24.30;62.60;;;;;;5027827;28;20029;-72
2023/06/08 10:26:48;;;;;;;5.30;3.90;;;24.20;62.90;;;;;;5027164;28;20021;-73
2023/06/08 10:29:14;;;;;;;3.47;3.17;;;24.20;63.00;;;;;;5029437;28;20049;-70
2023/06/08 10:31:47;;;;;;;4.90;3.55;;;24.20;62.60;;;;;;5033825;28;20025;-74
2023/06/08 10:34:15;;;;;;;5.18;3.47;;;24.10;62.80;;;;;;5030131;28;20028;-72
2023/06/08 10:36:42;;;;;;;3.75;3.15;;;24.10;62.10;;;;;;5031522;28;20029;-72
2023/06/08 10:39:14;;;;;;;4.22;3.65;;;24.10;62.40;;;;;;5029460;28;20068;-72
2023/06/08 10:41:59;;;;;;;4.47;3.60;;;24.00;62.30;;;;;;5029330;28;20033;-72
2023/06/08 10:44:35;;;;;;;6.82;4.03;;;24.00;62.90;;;;;;5024375;28;20040;-72
2023/06/08 10:47:04;;;;;;;4.65;3.35;;;24.00;62.30;;;;;;5033294;28;20029;-73
2023/06/08 10:49:44;;;;;;;4.90;3.75;;;24.00;62.60;;;;;;5026310;28;20075;-70
2023/06/08 10:52:16;;;;;;;7.50;4.68;;;24.00;62.40;;;;;;5029373;28;20087;-70
2023/06/08 10:55:08;;;;;;;4.85;3.83;;;24.00;63.40;;;;;;5028011;28;20036;-72
2023/06/08 10:57:46;;;;;;;5.43;4.05;;;24.00;64.00;;;;;;5032098;28;20009;-72
2023/06/08 11:00:28;;;;;;;4.63;3.65;;;24.00;64.30;;;;;;5032948;28;20032;-73
2023/06/08 11:03:05;;;;;;;4.32;3.50;;;24.00;64.60;;;;;;5029248;28;20021;-71
2023/06/08 11:05:35;;;;;;;6.60;4.82;;;24.00;65.00;;;;;;5031821;28;20036;-72
2023/06/08 11:08:02;;;;;;;6.10;4.28;;;24.00;64.80;;;;;;5033896;28;20029;-72
2023/06/08 11:10:30;;;;;;;7.88;3.58;;;24.00;65.20;;;;;;5032882;28;20021;-71
2023/06/08 11:13:05;;;;;;;4.72;3.55;;;24.00;65.20;;;;;;5030215;28;20045;-75
2023/06/08 11:15:31;;;;;;;4.65;3.55;;;24.10;65.80;;;;;;5030389;28;20029;-75
2023/06/08 11:17:57;;;;;;;5.70;3.50;;;24.10;66.40;;;;;;5027713;28;20022;-74
2023/06/08 11:20:29;;;;;;;7.50;4.10;;;24.10;67.70;;;;;;5032192;28;20079;-74
2023/06/08 11:22:55;;;;;;;5.90;3.70;;;24.10;69.90;;;;;;5032554;28;20026;-73
2023/06/08 11:25:22;;;;;;;5.93;3.47;;;24.10;71.00;;;;;;5031298;28;20087;-74
2023/06/08 11:27:47;;;;;;;6.53;3.78;;;24.10;72.00;;;;;;5030477;28;20021;-76
2023/06/08 11:30:17;;;;;;;8.77;3.15;;;24.00;72.20;;;;;;5027247;28;20040;-73
2023/06/08 11:32:47;;;;;;;7.20;4.78;;;23.90;72.90;;;;;;5031451;28;20102;-75
2023/06/08 11:35:14;;;;;;;4.20;3.20;;;23.80;73.80;;;;;;5025327;28;20029;-77
2023/06/08 11:37:41;;;;;;;5.35;3.45;;;23.80;74.60;;;;;;5030714;28;20136;-76
2023/06/08 11:40:15;;;;;;;4.47;2.65;;;23.60;72.20;;;;;;5028414;28;20029;-77
2023/06/08 11:42:42;;;;;;;6.32;2.40;;;23.40;66.10;;;;;;5032537;28;20026;-73
2023/06/08 11:45:10;;;;;;;4.25;2.42;;;23.30;65.70;;;;;;5024862;28;20078;-73
2023/06/08 11:47:36;;;;;;;3.95;2.40;;;23.10;66.20;;;;;;5026001;28;20075;-77
2023/06/08 11:50:03;;;;;;;21.08;4.90;;;22.90;67.00;;;;;;5019050;28;20017;-73
2023/06/08 11:52:34;;;;;;;16.00;5.18;;;22.60;74.20;;;;;;5017729;28;20036;-71
2023/06/08 11:55:15;;;;;;;22.25;6.03;;;22.20;82.70;;;;;;5036255;28;20493;-71
2023/06/08 11:57:43;;;;;;;21.95;5.82;;;21.70;92.50;;;;;;5024532;28;20025;-71
2023/06/08 12:00:11;;;;;;;17.83;4.63;;;21.10;95.00;;;;;;5025229;28;20390;-72
2023/06/08 12:02:38;;;;;;;16.48;4.97;;;20.60;95.80;;;;;;5026402;28;20022;-72
2023/06/08 12:05:06;;;;;;;14.95;4.63;;;20.10;97.20;;;;;;5024357;28;20025;-72
2023/06/08 12:07:33;;;;;;;11.27;4.15;;;19.60;98.90;;;;;;5026823;28;20029;-72
2023/06/08 12:10:00;;;;;;;8.18;3.60;;;19.10;98.10;;;;;;5025548;28;20017;-72
2023/06/08 12:12:29;;;;;;;12.20;3.85;;;18.80;94.50;;;;;;5024842;28;20017;-73
2023/06/08 12:14:56;;;;;;;7.40;3.97;;;18.70;96.60;;;;;;5025233;28;20658;-72
2023/06/08 12:17:28;;;;;;;12.88;4.93;;;18.60;97.90;;;;;;5023396;28;20164;-72
2023/06/08 12:19:54;;;;;;;8.13;4.47;;;18.60;98.20;;;;;;5025290;28;20044;-73
2023/06/08 12:22:21;;;;;;;7.80;4.28;;;18.60;98.40;;;;;;5023387;28;20401;-72
2023/06/08 12:24:47;;;;;;;7.68;4.70;;;18.50;97.00;;;;;;5025610;28;21122;-72
2023/06/08 12:27:13;;;;;;;8.02;4.00;;;18.40;96.70;;;;;;5023603;28;20018;-72
2023/06/08 12:29:41;;;;;;;8.43;4.25;;;18.40;97.10;;;;;;5023948;28;20021;-71
2023/06/08 12:32:07;;;;;;;8.13;4.20;;;18.40;96.50;;;;;;5020071;28;20392;-72
2023/06/08 12:34:33;;;;;;;10.45;4.03;;;18.50;96.80;;;;;;5024527;28;20018;-73
2023/06/08 12:36:59;;;;;;;7.28;4.13;;;18.50;97.10;;;;;;5022832;28;20476;-71
2023/06/08 12:39:25;;;;;;;7.30;4.25;;;18.70;97.70;;;;;;5028090;28;20033;-73
2023/06/08 12:41:51;;;;;;;8.77;3.63;;;18.80;97.90;;;;;;5015390;28;20140;-72
2023/06/08 12:44:17;;;;;;;6.30;4.18;;;19.00;98.20;;;;;;5027541;28;20113;-72
2023/06/08 12:46:43;;;;;;;6.70;3.60;;;19.20;98.30;;;;;;5031713;28;20025;-72
2023/06/08 12:49:11;;;;;;;9.48;4.28;;;19.40;98.10;;;;;;5031490;28;20017;-72
2023/06/08 12:51:37;;;;;;;7.55;3.75;;;19.60;97.60;;;;;;5032268;28;20017;-69